Happy Valentine's Day! 

Flight Track Log - Related Links

Times and Time Zones

All times are in EST time to prevent confusion due to time zone crossing. See the BJS339 flight status page for this flight to view local times or setup timezone preferences in your user account.


Time Position Orientation Groundspeed Altitude Reporting Facility
EST Latitude Longitude Course Direction KTS MPH feet Rate Location/Type
Thu 06:23:24 PM 24.0594 -82.4439 45° Northeast 526 605 41,000  Level Miami Center
Thu 06:24:24 PM 24.1769 -82.3172 45° Northeast 535 616 41,000  Level Miami Center
Thu 06:25:24 PM 24.2831 -82.2100 43° Northeast 529 609 41,000  Level Miami Center
Thu 06:26:24 PM 24.3933 -82.1056 41° Northeast 518 596 41,000 -50 Level Miami Center
Thu 06:27:24 PM 24.4994 -81.9958 43° Northeast 513 590 40,900 -600 Descending Miami Center
Thu 06:28:24 PM 24.6056 -81.8814 44° Northeast 513 590 39,800 -1,300 Descending Miami Center
Thu 06:29:24 PM 24.7239 -81.7789 38° Northeast 520 598 38,300 -1,900 Descending Miami Center
Thu 06:30:24 PM 24.8236 -81.6661 46° Northeast 520 598 36,000 -2,600 Descending Miami Center
Thu 06:31:24 PM 24.9189 -81.5622 45° Northeast 503 579 33,100 -3,300 Descending Miami Center
Thu 06:32:24 PM 25.0203 -81.4606 42° Northeast 487 560 29,400 -3,700 Descending Miami Center
Thu 06:33:24 PM 25.1172 -81.3611 43° Northeast 487 560 25,700 -3,600 Descending Miami Center
Thu 06:34:24 PM 25.2119 -81.2658 42° Northeast 475 547 22,200 -3,500 Descending Miami Center
Thu 06:35:24 PM 25.2983 -81.1725 44° Northeast 449 517 18,700 -3,239 Descending Miami Center
Thu 06:36:17 PM 25.3653 -81.1014 44° Northeast 406 467 16,100 -3,100 Descending Miami Center
Thu 06:36:24 PM 25.3800 -81.0881 39° Northeast 425 489 15,600 -3,134 Descending Miami Center
Thu 06:37:24 PM 25.4597 -81.0103 41° Northeast 398 458 12,600 -2,350 Descending Miami Center
Thu 06:38:24 PM 25.5242 -80.9389 45° Northeast 354 407 10,900 -1,548 Descending Miami Center
Thu 06:38:26 PM 25.5242 -80.9389 45° Northeast 302 348 11,000 -500 Climbing Miami Center
Thu 06:39:24 PM 25.5719 -80.8783 49° Northeast 302 348 10,400 -689 Descending Miami Center
Thu 06:39:27 PM 25.5719 -80.8761 90° East 248 285 10,300 -1,219 Descending Miami Center
Thu 06:40:28 PM 25.6353 -80.8528 18° North 244 281 9,100 -821 Descending Miami Center
Thu 06:41:24 PM 25.7042 -80.8550 358° North 235 270 8,700 -393 Descending Miami Center
Thu 06:41:29 PM 25.7042 -80.8575 270° West 245 282 8,700 -1,200 Level Miami Center
Thu 06:42:24 PM 25.7708 -80.8642 355° North 235 270 7,500 -1,279 Descending Miami Center
Thu 06:42:30 PM 25.7789 -80.8667 344° North 248 285 7,400 -1,100 Descending Miami Center
Thu 06:43:24 PM 25.8372 -80.8711 356° North 235 270 6,400 -1,071 Descending Miami Center
Thu 06:43:26 PM 25.8372 -80.8733 270° West 233 268 6,400 -500 Level Miami Center
Thu 06:44:24 PM 25.9022 -80.8686 North 235 270 5,900 -393 Descending Miami Center
Thu 06:44:27 PM 25.9022 -80.8686 North 226 260 6,000 103 Climbing Miami Center
Thu 06:45:22 PM 25.9606 -80.8683 360° North 233 268 6,000 -105 Level Miami Center
Thu 06:45:24 PM 25.9650 -80.8639 42° Northeast 235 270 5,900  Descending Miami Center
Thu 06:46:29 PM 26.0233 -80.8658 358° North 197 227 6,000 45 Climbing Miami Center
Thu 06:47:36 PM 26.0764 -80.8350 28° Northeast 188 216 6,000  Level Miami Center
Thu 06:48:38 PM 26.1050 -80.7875 56° Northeast 188 216 6,000  Level Miami Center
Thu 06:49:39 PM 26.0897 -80.7339 108° East 185 213 6,000 -98 Level Miami Center
Thu 06:50:40 PM 26.0828 -80.6733 97° East 193 222 5,800 -94 Descending Miami Center
Thu 06:51:47 PM 26.0783 -80.6086 94° East 185 213 5,800  Level Miami Center
Thu 06:52:43 PM 26.0794 -80.5578 89° East 175 201 5,800 -256 Level Miami Center
Thu 06:53:44 PM 26.0789 -80.5022 91° East 179 206 5,300 -541 Descending Miami Center
Thu 06:54:45 PM 26.0739 -80.4464 96° East 172 198 4,700 -750 Descending Miami Center
Thu 06:55:52 PM 26.0775 -80.3889 86° East 169 194 3,700 -891 Descending Miami Center
Thu 06:56:53 PM 26.0767 -80.3356 91° East 171 197 2,800 -829 Descending Miami Center
Thu 06:57:55 PM 26.0736 -80.2822 94° East 160 184 2,000 -780 Descending Miami Center
Thu 06:58:56 PM 26.0747 -80.2361 88° East 144 166 1,200 -738 Descending Miami Center
Thu 06:59:57 PM 26.0756 -80.2014 88° East 117 135 500 -689 Descending Miami Center
Thu 07:01:00 PM 26.0667 -80.1500 90° East  Level FlightAware Approximate

Login

Don't have an account? Register now (free) for customized features, flight alerts, and more!